sensor_id;sensor_type;location;lat;lon;timestamp;temperature;humidity
9383;DHT22;4731;49.708;10.816;2022-09-09T00:01:11;13.20;99.90
9383;DHT22;4731;49.708;10.816;2022-09-09T00:03:47;13.20;99.90
9383;DHT22;4731;49.708;10.816;2022-09-09T00:06:21;13.20;99.90
9383;DHT22;4731;49.708;10.816;2022-09-09T00:08:58;13.20;99.90
9383;DHT22;4731;49.708;10.816;2022-09-09T00:11:35;13.60;99.90
9383;DHT22;4731;49.708;10.816;2022-09-09T00:14:11;13.10;99.90
9383;DHT22;4731;49.708;10.816;2022-09-09T00:16:42;13.10;99.90
9383;DHT22;4731;49.708;10.816;2022-09-09T00:19:20;13.00;99.90
9383;DHT22;4731;49.708;10.816;2022-09-09T00:21:53;13.10;99.90
9383;DHT22;4731;49.708;10.816;2022-09-09T00:24:27;13.10;99.90
9383;DHT22;4731;49.708;10.816;2022-09-09T00:27:02;13.10;99.90
9383;DHT22;4731;49.708;10.816;2022-09-09T00:29:35;13.10;99.90
9383;DHT22;4731;49.708;10.816;2022-09-09T00:32:12;13.10;99.90
9383;DHT22;4731;49.708;10.816;2022-09-09T00:34:46;13.80;99.90
9383;DHT22;4731;49.708;10.816;2022-09-09T00:37:14;13.10;99.90
9383;DHT22;4731;49.708;10.816;2022-09-09T00:39:42;13.20;99.90
9383;DHT22;4731;49.708;10.816;2022-09-09T00:42:16;13.20;99.90
9383;DHT22;4731;49.708;10.816;2022-09-09T00:44:56;13.20;99.90
9383;DHT22;4731;49.708;10.816;2022-09-09T00:47:40;13.10;99.90
9383;DHT22;4731;49.708;10.816;2022-09-09T00:50:26;13.10;99.90
9383;DHT22;4731;49.708;10.816;2022-09-09T00:53:02;13.10;99.90
9383;DHT22;4731;49.708;10.816;2022-09-09T00:55:40;13.10;99.90
9383;DHT22;4731;49.708;10.816;2022-09-09T00:58:10;13.10;99.90
9383;DHT22;4731;49.708;10.816;2022-09-09T01:00:42;13.10;99.90
9383;DHT22;4731;49.708;10.816;2022-09-09T01:03:22;13.10;99.90
9383;DHT22;4731;49.708;10.816;2022-09-09T01:06:01;13.10;99.90
9383;DHT22;4731;49.708;10.816;2022-09-09T01:08:42;13.10;99.90
9383;DHT22;4731;49.708;10.816;2022-09-09T01:11:16;13.10;99.90
9383;DHT22;4731;49.708;10.816;2022-09-09T01:13:52;13.10;99.90
9383;DHT22;4731;49.708;10.816;2022-09-09T01:16:20;13.10;99.90
9383;DHT22;4731;49.708;10.816;2022-09-09T01:18:52;14.60;99.90
9383;DHT22;4731;49.708;10.816;2022-09-09T01:21:25;13.10;99.90
9383;DHT22;4731;49.708;10.816;2022-09-09T01:24:13;13.10;99.90
9383;DHT22;4731;49.708;10.816;2022-09-09T01:26:44;13.20;99.90
9383;DHT22;4731;49.708;10.816;2022-09-09T01:29:13;14.40;99.90
9383;DHT22;4731;49.708;10.816;2022-09-09T01:31:50;13.30;99.90
9383;DHT22;4731;49.708;10.816;2022-09-09T01:34:18;15.10;99.90
9383;DHT22;4731;49.708;10.816;2022-09-09T01:36:48;13.20;99.90
9383;DHT22;4731;49.708;10.816;2022-09-09T01:39:17;13.10;99.90
9383;DHT22;4731;49.708;10.816;2022-09-09T01:41:45;13.20;99.90
9383;DHT22;4731;49.708;10.816;2022-09-09T01:44:12;13.30;99.90
9383;DHT22;4731;49.708;10.816;2022-09-09T01:46:39;13.30;99.90
9383;DHT22;4731;49.708;10.816;2022-09-09T01:49:07;13.20;99.90
9383;DHT22;4731;49.708;10.816;2022-09-09T01:51:35;13.20;99.90
9383;DHT22;4731;49.708;10.816;2022-09-09T01:54:03;13.20;99.90
9383;DHT22;4731;49.708;10.816;2022-09-09T01:56:39;13.10;99.90
9383;DHT22;4731;49.708;10.816;2022-09-09T01:59:33;13.20;99.90
9383;DHT22;4731;49.708;10.816;2022-09-09T02:02:10;13.10;99.90
9383;DHT22;4731;49.708;10.816;2022-09-09T02:04:40;13.50;99.90
9383;DHT22;4731;49.708;10.816;2022-09-09T02:07:17;13.30;99.90
9383;DHT22;4731;49.708;10.816;2022-09-09T02:09:49;13.40;99.90
9383;DHT22;4731;49.708;10.816;2022-09-09T02:12:19;13.50;99.90
9383;DHT22;4731;49.708;10.816;2022-09-09T02:14:52;13.50;99.90
9383;DHT22;4731;49.708;10.816;2022-09-09T02:17:27;13.40;99.90
9383;DHT22;4731;49.708;10.816;2022-09-09T02:19:58;13.30;99.90
9383;DHT22;4731;49.708;10.816;2022-09-09T02:22:28;13.20;99.90
9383;DHT22;4731;49.708;10.816;2022-09-09T02:24:57;13.20;99.90
9383;DHT22;4731;49.708;10.816;2022-09-09T02:27:26;13.20;99.90
9383;DHT22;4731;49.708;10.816;2022-09-09T02:29:57;13.20;99.90
9383;DHT22;4731;49.708;10.816;2022-09-09T02:34:55;13.20;99.90
9383;DHT22;4731;49.708;10.816;2022-09-09T02:37:31;13.10;99.90
9383;DHT22;4731;49.708;10.816;2022-09-09T02:39:58;13.20;99.90
9383;DHT22;4731;49.708;10.816;2022-09-09T02:42:25;13.20;99.90
9383;DHT22;4731;49.708;10.816;2022-09-09T02:44:52;13.10;99.90
9383;DHT22;4731;49.708;10.816;2022-09-09T02:47:26;13.10;99.90
9383;DHT22;4731;49.708;10.816;2022-09-09T02:50:05;13.20;99.90
9383;DHT22;4731;49.708;10.816;2022-09-09T02:52:42;13.20;99.90
9383;DHT22;4731;49.708;10.816;2022-09-09T02:55:16;13.20;99.90
9383;DHT22;4731;49.708;10.816;2022-09-09T02:57:45;15.30;99.90
9383;DHT22;4731;49.708;10.816;2022-09-09T03:00:14;13.20;99.90
9383;DHT22;4731;49.708;10.816;2022-09-09T03:05:10;13.20;99.90
9383;DHT22;4731;49.708;10.816;2022-09-09T03:07:38;13.10;99.90
9383;DHT22;4731;49.708;10.816;2022-09-09T03:10:06;13.10;99.90
9383;DHT22;4731;49.708;10.816;2022-09-09T03:12:33;13.20;99.90
9383;DHT22;4731;49.708;10.816;2022-09-09T03:17:27;13.10;99.90
9383;DHT22;4731;49.708;10.816;2022-09-09T03:19:55;13.20;99.90
9383;DHT22;4731;49.708;10.816;2022-09-09T03:22:24;13.20;99.90
9383;DHT22;4731;49.708;10.816;2022-09-09T03:24:51;13.20;99.90
9383;DHT22;4731;49.708;10.816;2022-09-09T03:27:18;13.40;99.90
9383;DHT22;4731;49.708;10.816;2022-09-09T03:32:16;13.20;99.90
9383;DHT22;4731;49.708;10.816;2022-09-09T03:34:43;14.40;99.90
9383;DHT22;4731;49.708;10.816;2022-09-09T03:37:12;13.90;99.90
9383;DHT22;4731;49.708;10.816;2022-09-09T03:44:33;13.30;99.90
9383;DHT22;4731;49.708;10.816;2022-09-09T03:51:54;13.30;99.90
9383;DHT22;4731;49.708;10.816;2022-09-09T03:54:23;16.50;99.90
9383;DHT22;4731;49.708;10.816;2022-09-09T04:01:44;13.30;99.90
9383;DHT22;4731;49.708;10.816;2022-09-09T04:04:12;13.30;99.90
9383;DHT22;4731;49.708;10.816;2022-09-09T04:06:39;15.90;99.90
9383;DHT22;4731;49.708;10.816;2022-09-09T04:09:06;15.40;99.90
9383;DHT22;4731;49.708;10.816;2022-09-09T04:14:02;13.20;99.90
9383;DHT22;4731;49.708;10.816;2022-09-09T04:16:29;15.60;99.90
9383;DHT22;4731;49.708;10.816;2022-09-09T04:18:56;15.60;99.90
9383;DHT22;4731;49.708;10.816;2022-09-09T04:21:23;10.80;99.90
9383;DHT22;4731;49.708;10.816;2022-09-09T04:23:50;14.20;99.90
9383;DHT22;4731;49.708;10.816;2022-09-09T04:26:18;14.10;99.90
9383;DHT22;4731;49.708;10.816;2022-09-09T04:28:46;13.90;99.90
9383;DHT22;4731;49.708;10.816;2022-09-09T04:31:16;14.90;99.90
9383;DHT22;4731;49.708;10.816;2022-09-09T04:33:43;13.30;99.90
9383;DHT22;4731;49.708;10.816;2022-09-09T04:36:12;13.20;99.90
9383;DHT22;4731;49.708;10.816;2022-09-09T04:38:39;13.20;99.90
9383;DHT22;4731;49.708;10.816;2022-09-09T04:41:06;14.70;99.90
9383;DHT22;4731;49.708;10.816;2022-09-09T04:43:33;13.30;99.90
9383;DHT22;4731;49.708;10.816;2022-09-09T04:46:01;13.70;99.90
9383;DHT22;4731;49.708;10.816;2022-09-09T04:48:28;13.20;99.90
9383;DHT22;4731;49.708;10.816;2022-09-09T04:50:57;13.30;99.90
9383;DHT22;4731;49.708;10.816;2022-09-09T04:53:24;13.30;99.90
9383;DHT22;4731;49.708;10.816;2022-09-09T04:55:52;15.80;99.90
9383;DHT22;4731;49.708;10.816;2022-09-09T04:58:19;13.40;99.90
9383;DHT22;4731;49.708;10.816;2022-09-09T05:00:47;13.40;99.90
9383;DHT22;4731;49.708;10.816;2022-09-09T05:03:15;14.10;99.90
9383;DHT22;4731;49.708;10.816;2022-09-09T05:05:42;14.10;99.90
9383;DHT22;4731;49.708;10.816;2022-09-09T05:08:10;14.50;99.90
9383;DHT22;4731;49.708;10.816;2022-09-09T05:10:38;14.30;99.90
9383;DHT22;4731;49.708;10.816;2022-09-09T05:13:07;13.60;99.90
9383;DHT22;4731;49.708;10.816;2022-09-09T05:15:33;13.50;99.90
9383;DHT22;4731;49.708;10.816;2022-09-09T05:18:01;13.70;99.90
9383;DHT22;4731;49.708;10.816;2022-09-09T05:20:30;15.30;99.90
9383;DHT22;4731;49.708;10.816;2022-09-09T05:22:57;15.60;99.90
9383;DHT22;4731;49.708;10.816;2022-09-09T05:25:24;15.40;99.90
9383;DHT22;4731;49.708;10.816;2022-09-09T05:27:51;13.60;99.90
9383;DHT22;4731;49.708;10.816;2022-09-09T05:30:19;15.10;99.90
9383;DHT22;4731;49.708;10.816;2022-09-09T05:32:47;13.70;99.90
9383;DHT22;4731;49.708;10.816;2022-09-09T05:35:14;13.90;99.90
9383;DHT22;4731;49.708;10.816;2022-09-09T05:37:43;13.90;99.90
9383;DHT22;4731;49.708;10.816;2022-09-09T05:40:11;14.10;99.90
9383;DHT22;4731;49.708;10.816;2022-09-09T05:42:38;14.10;99.90
9383;DHT22;4731;49.708;10.816;2022-09-09T05:45:06;14.20;99.90
9383;DHT22;4731;49.708;10.816;2022-09-09T05:47:34;14.20;99.90
9383;DHT22;4731;49.708;10.816;2022-09-09T05:50:03;16.30;99.90
9383;DHT22;4731;49.708;10.816;2022-09-09T05:52:30;14.40;99.90
9383;DHT22;4731;49.708;10.816;2022-09-09T05:54:58;14.60;99.90
9383;DHT22;4731;49.708;10.816;2022-09-09T05:57:25;14.80;99.90
9383;DHT22;4731;49.708;10.816;2022-09-09T05:59:52;15.60;99.90
9383;DHT22;4731;49.708;10.816;2022-09-09T06:02:19;14.50;99.90
9383;DHT22;4731;49.708;10.816;2022-09-09T06:04:45;14.80;99.90
9383;DHT22;4731;49.708;10.816;2022-09-09T06:07:12;16.20;99.90
9383;DHT22;4731;49.708;10.816;2022-09-09T06:09:40;16.70;99.90
9383;DHT22;4731;49.708;10.816;2022-09-09T06:12:08;14.80;99.90
9383;DHT22;4731;49.708;10.816;2022-09-09T06:14:35;16.50;99.90
9383;DHT22;4731;49.708;10.816;2022-09-09T06:17:02;14.80;99.90
9383;DHT22;4731;49.708;10.816;2022-09-09T06:19:29;14.90;99.90
9383;DHT22;4731;49.708;10.816;2022-09-09T06:21:56;15.00;99.90
9383;DHT22;4731;49.708;10.816;2022-09-09T06:26:49;15.50;99.90
9383;DHT22;4731;49.708;10.816;2022-09-09T06:29:18;16.00;99.90
9383;DHT22;4731;49.708;10.816;2022-09-09T06:31:45;16.00;99.90
9383;DHT22;4731;49.708;10.816;2022-09-09T06:34:13;16.20;99.90
9383;DHT22;4731;49.708;10.816;2022-09-09T06:36:39;16.40;99.90
9383;DHT22;4731;49.708;10.816;2022-09-09T06:39:07;16.90;99.90
9383;DHT22;4731;49.708;10.816;2022-09-09T06:41:36;18.40;99.90
9383;DHT22;4731;49.708;10.816;2022-09-09T06:44:03;17.00;99.90
9383;DHT22;4731;49.708;10.816;2022-09-09T06:46:32;17.20;99.90
9383;DHT22;4731;49.708;10.816;2022-09-09T06:48:59;17.20;99.90
9383;DHT22;4731;49.708;10.816;2022-09-09T06:51:27;18.60;99.90
9383;DHT22;4731;49.708;10.816;2022-09-09T06:53:55;17.60;99.90
9383;DHT22;4731;49.708;10.816;2022-09-09T06:56:24;18.60;99.90
9383;DHT22;4731;49.708;10.816;2022-09-09T06:58:52;17.70;99.90
9383;DHT22;4731;49.708;10.816;2022-09-09T07:01:21;17.80;99.90
9383;DHT22;4731;49.708;10.816;2022-09-09T07:03:51;17.70;99.90
9383;DHT22;4731;49.708;10.816;2022-09-09T07:06:20;17.70;99.90
9383;DHT22;4731;49.708;10.816;2022-09-09T07:08:49;17.80;99.90
9383;DHT22;4731;49.708;10.816;2022-09-09T07:11:17;18.00;99.90
9383;DHT22;4731;49.708;10.816;2022-09-09T07:13:44;18.50;99.90
9383;DHT22;4731;49.708;10.816;2022-09-09T07:16:12;19.10;99.90
9383;DHT22;4731;49.708;10.816;2022-09-09T07:18:40;19.30;99.90
9383;DHT22;4731;49.708;10.816;2022-09-09T07:21:09;19.30;99.90
9383;DHT22;4731;49.708;10.816;2022-09-09T07:23:37;19.70;99.90
9383;DHT22;4731;49.708;10.816;2022-09-09T07:26:08;22.90;99.90
9383;DHT22;4731;49.708;10.816;2022-09-09T07:28:36;20.50;99.90
9383;DHT22;4731;49.708;10.816;2022-09-09T07:31:04;20.80;99.90
9383;DHT22;4731;49.708;10.816;2022-09-09T07:33:31;21.80;99.90
9383;DHT22;4731;49.708;10.816;2022-09-09T07:36:03;20.90;99.90
9383;DHT22;4731;49.708;10.816;2022-09-09T07:38:32;21.00;99.90
9383;DHT22;4731;49.708;10.816;2022-09-09T07:41:05;21.10;99.90
9383;DHT22;4731;49.708;10.816;2022-09-09T07:43:32;21.70;99.90
9383;DHT22;4731;49.708;10.816;2022-09-09T07:46:00;23.50;99.90
9383;DHT22;4731;49.708;10.816;2022-09-09T07:48:28;22.80;99.90
9383;DHT22;4731;49.708;10.816;2022-09-09T07:51:06;24.50;99.90
9383;DHT22;4731;49.708;10.816;2022-09-09T07:53:35;24.90;99.90
9383;DHT22;4731;49.708;10.816;2022-09-09T07:56:05;24.10;99.90
9383;DHT22;4731;49.708;10.816;2022-09-09T07:58:32;24.20;99.90
9383;DHT22;4731;49.708;10.816;2022-09-09T08:00:59;23.90;99.90
9383;DHT22;4731;49.708;10.816;2022-09-09T08:03:26;23.80;99.90
9383;DHT22;4731;49.708;10.816;2022-09-09T08:05:53;24.30;99.90
9383;DHT22;4731;49.708;10.816;2022-09-09T08:08:26;26.10;99.90
9383;DHT22;4731;49.708;10.816;2022-09-09T08:11:01;25.40;99.90
9383;DHT22;4731;49.708;10.816;2022-09-09T08:13:29;25.40;99.90
9383;DHT22;4731;49.708;10.816;2022-09-09T08:16:04;28.10;99.90
9383;DHT22;4731;49.708;10.816;2022-09-09T08:18:31;25.30;99.90
9383;DHT22;4731;49.708;10.816;2022-09-09T08:20:57;25.10;99.90
9383;DHT22;4731;49.708;10.816;2022-09-09T08:23:27;25.30;99.90
9383;DHT22;4731;49.708;10.816;2022-09-09T08:26:02;28.60;99.90
9383;DHT22;4731;49.708;10.816;2022-09-09T08:28:29;29.10;99.90
9383;DHT22;4731;49.708;10.816;2022-09-09T08:31:05;30.20;99.90
9383;DHT22;4731;49.708;10.816;2022-09-09T08:33:32;29.10;99.90
9383;DHT22;4731;49.708;10.816;2022-09-09T08:35:59;31.80;99.90
9383;DHT22;4731;49.708;10.816;2022-09-09T08:41:02;29.40;99.90
9383;DHT22;4731;49.708;10.816;2022-09-09T08:43:31;29.80;99.90
9383;DHT22;4731;49.708;10.816;2022-09-09T08:46:04;30.00;99.90
9383;DHT22;4731;49.708;10.816;2022-09-09T08:48:50;30.40;99.90
9383;DHT22;4731;49.708;10.816;2022-09-09T08:51:19;31.10;99.90
9383;DHT22;4731;49.708;10.816;2022-09-09T08:53:49;30.00;99.90
9383;DHT22;4731;49.708;10.816;2022-09-09T08:56:21;31.60;99.90
9383;DHT22;4731;49.708;10.816;2022-09-09T08:58:49;31.50;99.90
9383;DHT22;4731;49.708;10.816;2022-09-09T09:01:26;32.00;99.90
9383;DHT22;4731;49.708;10.816;2022-09-09T09:04:00;33.00;99.90
9383;DHT22;4731;49.708;10.816;2022-09-09T09:06:40;33.00;99.90
9383;DHT22;4731;49.708;10.816;2022-09-09T09:09:14;33.50;99.90
9383;DHT22;4731;49.708;10.816;2022-09-09T09:11:49;34.60;96.30
9383;DHT22;4731;49.708;10.816;2022-09-09T09:14:20;35.80;94.50
9383;DHT22;4731;49.708;10.816;2022-09-09T09:16:53;35.70;94.80
9383;DHT22;4731;49.708;10.816;2022-09-09T09:19:21;34.90;92.30
9383;DHT22;4731;49.708;10.816;2022-09-09T09:21:54;35.30;93.60
9383;DHT22;4731;49.708;10.816;2022-09-09T09:24:27;35.50;92.20
9383;DHT22;4731;49.708;10.816;2022-09-09T09:27:00;33.50;92.70
9383;DHT22;4731;49.708;10.816;2022-09-09T09:29:34;33.40;93.10
9383;DHT22;4731;49.708;10.816;2022-09-09T09:32:02;33.00;94.00
9383;DHT22;4731;49.708;10.816;2022-09-09T09:34:30;34.30;93.60
9383;DHT22;4731;49.708;10.816;2022-09-09T09:36:57;34.40;92.40
9383;DHT22;4731;49.708;10.816;2022-09-09T09:39:28;34.20;93.00
9383;DHT22;4731;49.708;10.816;2022-09-09T09:41:56;33.20;93.40
9383;DHT22;4731;49.708;10.816;2022-09-09T09:44:26;32.80;94.30
9383;DHT22;4731;49.708;10.816;2022-09-09T09:47:06;34.20;94.00
9383;DHT22;4731;49.708;10.816;2022-09-09T09:49:33;35.70;91.70
9383;DHT22;4731;49.708;10.816;2022-09-09T09:52:01;33.90;90.80
9383;DHT22;4731;49.708;10.816;2022-09-09T09:54:30;30.40;95.30
9383;DHT22;4731;49.708;10.816;2022-09-09T09:57:08;30.20;96.00
9383;DHT22;4731;49.708;10.816;2022-09-09T10:02:20;27.30;99.90
9383;DHT22;4731;49.708;10.816;2022-09-09T10:05:01;29.30;99.90
9383;DHT22;4731;49.708;10.816;2022-09-09T10:07:28;32.10;97.80
9383;DHT22;4731;49.708;10.816;2022-09-09T10:09:57;33.80;94.10
9383;DHT22;4731;49.708;10.816;2022-09-09T10:12:34;34.90;91.80
9383;DHT22;4731;49.708;10.816;2022-09-09T10:15:21;35.20;89.40
9383;DHT22;4731;49.708;10.816;2022-09-09T10:17:56;34.70;88.80
9383;DHT22;4731;49.708;10.816;2022-09-09T10:20:35;34.70;90.00
9383;DHT22;4731;49.708;10.816;2022-09-09T10:23:13;33.00;87.80
9383;DHT22;4731;49.708;10.816;2022-09-09T10:26:00;32.20;91.50
9383;DHT22;4731;49.708;10.816;2022-09-09T10:28:57;32.10;91.90
9383;DHT22;4731;49.708;10.816;2022-09-09T10:31:35;31.00;92.10
9383;DHT22;4731;49.708;10.816;2022-09-09T10:34:16;30.80;92.40
9383;DHT22;4731;49.708;10.816;2022-09-09T10:36:47;28.90;96.20
9383;DHT22;4731;49.708;10.816;2022-09-09T10:39:25;28.90;96.20
9383;DHT22;4731;49.708;10.816;2022-09-09T10:42:04;28.90;96.90
9383;DHT22;4731;49.708;10.816;2022-09-09T10:44:51;27.60;99.60
9383;DHT22;4731;49.708;10.816;2022-09-09T10:47:40;26.20;99.90
9383;DHT22;4731;49.708;10.816;2022-09-09T10:50:25;26.10;99.90
9383;DHT22;4731;49.708;10.816;2022-09-09T10:53:00;25.90;99.90
9383;DHT22;4731;49.708;10.816;2022-09-09T10:55:37;25.60;99.90
9383;DHT22;4731;49.708;10.816;2022-09-09T10:58:09;25.10;99.90
9383;DHT22;4731;49.708;10.816;2022-09-09T11:00:40;25.00;99.90
9383;DHT22;4731;49.708;10.816;2022-09-09T11:03:17;25.70;99.90
9383;DHT22;4731;49.708;10.816;2022-09-09T11:05:47;28.10;99.90
9383;DHT22;4731;49.708;10.816;2022-09-09T11:08:18;30.70;99.90
9383;DHT22;4731;49.708;10.816;2022-09-09T11:10:51;34.20;91.30
9383;DHT22;4731;49.708;10.816;2022-09-09T11:13:24;34.10;91.30
9383;DHT22;4731;49.708;10.816;2022-09-09T11:15:57;33.30;92.70
9383;DHT22;4731;49.708;10.816;2022-09-09T11:18:29;30.40;93.30
9383;DHT22;4731;49.708;10.816;2022-09-09T11:21:00;28.20;97.50
9383;DHT22;4731;49.708;10.816;2022-09-09T11:23:35;27.80;99.40
9383;DHT22;4731;49.708;10.816;2022-09-09T11:26:05;27.80;99.90
9383;DHT22;4731;49.708;10.816;2022-09-09T11:28:46;27.20;99.90
9383;DHT22;4731;49.708;10.816;2022-09-09T11:31:32;28.90;99.90
9383;DHT22;4731;49.708;10.816;2022-09-09T11:34:21;31.40;96.20
9383;DHT22;4731;49.708;10.816;2022-09-09T11:37:19;33.40;91.60
9383;DHT22;4731;49.708;10.816;2022-09-09T11:40:14;34.00;87.50
9383;DHT22;4731;49.708;10.816;2022-09-09T11:42:42;34.90;85.50
9383;DHT22;4731;49.708;10.816;2022-09-09T11:45:19;35.30;82.10
9383;DHT22;4731;49.708;10.816;2022-09-09T11:47:53;35.50;78.00
9383;DHT22;4731;49.708;10.816;2022-09-09T11:50:31;32.30;83.80
9383;DHT22;4731;49.708;10.816;2022-09-09T11:53:17;32.50;84.60
9383;DHT22;4731;49.708;10.816;2022-09-09T11:55:48;33.40;85.20
9383;DHT22;4731;49.708;10.816;2022-09-09T11:58:29;32.50;84.40
9383;DHT22;4731;49.708;10.816;2022-09-09T12:03:34;32.50;80.80
9383;DHT22;4731;49.708;10.816;2022-09-09T12:06:13;34.20;81.40
9383;DHT22;4731;49.708;10.816;2022-09-09T12:08:43;33.80;78.80
9383;DHT22;4731;49.708;10.816;2022-09-09T12:11:11;30.60;81.20
9383;DHT22;4731;49.708;10.816;2022-09-09T12:13:37;27.10;91.50
9383;DHT22;4731;49.708;10.816;2022-09-09T12:16:29;27.00;99.50
9383;DHT22;4731;49.708;10.816;2022-09-09T12:19:04;23.00;99.90
9383;DHT22;4731;49.708;10.816;2022-09-09T12:21:36;22.00;99.90
9383;DHT22;4731;49.708;10.816;2022-09-09T12:24:08;21.90;99.90
9383;DHT22;4731;49.708;10.816;2022-09-09T12:26:38;21.70;99.90
9383;DHT22;4731;49.708;10.816;2022-09-09T12:29:14;21.30;99.90
9383;DHT22;4731;49.708;10.816;2022-09-09T12:31:47;20.80;99.90
9383;DHT22;4731;49.708;10.816;2022-09-09T12:34:27;20.60;99.90
9383;DHT22;4731;49.708;10.816;2022-09-09T12:37:02;19.90;99.90
9383;DHT22;4731;49.708;10.816;2022-09-09T12:39:34;19.60;99.90
9383;DHT22;4731;49.708;10.816;2022-09-09T12:42:02;19.50;99.90
9383;DHT22;4731;49.708;10.816;2022-09-09T12:44:30;19.40;99.90
9383;DHT22;4731;49.708;10.816;2022-09-09T12:47:00;18.90;99.90
9383;DHT22;4731;49.708;10.816;2022-09-09T12:49:30;18.90;99.90
9383;DHT22;4731;49.708;10.816;2022-09-09T12:52:02;18.90;99.90
9383;DHT22;4731;49.708;10.816;2022-09-09T12:54:31;19.00;99.90
9383;DHT22;4731;49.708;10.816;2022-09-09T12:56:58;19.40;99.90
9383;DHT22;4731;49.708;10.816;2022-09-09T12:59:26;20.50;99.90
9383;DHT22;4731;49.708;10.816;2022-09-09T13:01:57;21.80;99.90
9383;DHT22;4731;49.708;10.816;2022-09-09T13:04:24;23.60;99.90
9383;DHT22;4731;49.708;10.816;2022-09-09T13:06:51;25.90;99.90
9383;DHT22;4731;49.708;10.816;2022-09-09T13:09:20;27.20;99.90
9383;DHT22;4731;49.708;10.816;2022-09-09T13:11:50;28.80;99.90
9383;DHT22;4731;49.708;10.816;2022-09-09T13:14:19;29.40;99.90
9383;DHT22;4731;49.708;10.816;2022-09-09T13:16:56;30.30;99.90
9383;DHT22;4731;49.708;10.816;2022-09-09T13:19:23;30.90;99.90
9383;DHT22;4731;49.708;10.816;2022-09-09T13:21:53;30.80;99.90
9383;DHT22;4731;49.708;10.816;2022-09-09T13:24:31;31.00;99.90
9383;DHT22;4731;49.708;10.816;2022-09-09T13:27:00;31.10;99.90
9383;DHT22;4731;49.708;10.816;2022-09-09T13:29:27;30.10;99.90
9383;DHT22;4731;49.708;10.816;2022-09-09T13:32:04;30.40;99.90
9383;DHT22;4731;49.708;10.816;2022-09-09T13:34:33;30.50;99.90
9383;DHT22;4731;49.708;10.816;2022-09-09T13:37:02;29.80;99.90
9383;DHT22;4731;49.708;10.816;2022-09-09T13:39:33;30.50;99.90
9383;DHT22;4731;49.708;10.816;2022-09-09T13:42:02;31.00;99.90
9383;DHT22;4731;49.708;10.816;2022-09-09T13:44:33;31.90;99.90
9383;DHT22;4731;49.708;10.816;2022-09-09T13:47:03;31.10;99.90
9383;DHT22;4731;49.708;10.816;2022-09-09T13:49:32;30.90;99.90
9383;DHT22;4731;49.708;10.816;2022-09-09T13:52:05;30.70;99.90
9383;DHT22;4731;49.708;10.816;2022-09-09T13:54:34;30.40;99.50
9383;DHT22;4731;49.708;10.816;2022-09-09T13:57:01;30.80;98.30
9383;DHT22;4731;49.708;10.816;2022-09-09T13:59:29;30.80;96.50
9383;DHT22;4731;49.708;10.816;2022-09-09T14:01:57;30.40;97.60
9383;DHT22;4731;49.708;10.816;2022-09-09T14:04:24;30.20;98.50
9383;DHT22;4731;49.708;10.816;2022-09-09T14:06:50;30.20;97.90
9383;DHT22;4731;49.708;10.816;2022-09-09T14:09:19;30.30;96.90
9383;DHT22;4731;49.708;10.816;2022-09-09T14:11:47;29.10;98.80
9383;DHT22;4731;49.708;10.816;2022-09-09T14:14:14;29.30;98.60
9383;DHT22;4731;49.708;10.816;2022-09-09T14:16:40;29.80;98.20
9383;DHT22;4731;49.708;10.816;2022-09-09T14:19:08;29.70;97.30
9383;DHT22;4731;49.708;10.816;2022-09-09T14:21:35;28.80;98.10
9383;DHT22;4731;49.708;10.816;2022-09-09T14:24:02;27.90;98.30
9383;DHT22;4731;49.708;10.816;2022-09-09T14:28:57;26.70;99.80
9383;DHT22;4731;49.708;10.816;2022-09-09T14:31:24;26.70;99.90
9383;DHT22;4731;49.708;10.816;2022-09-09T14:33:51;26.10;99.90
9383;DHT22;4731;49.708;10.816;2022-09-09T14:36:20;25.90;99.90
9383;DHT22;4731;49.708;10.816;2022-09-09T14:38:47;25.80;99.90
9383;DHT22;4731;49.708;10.816;2022-09-09T14:41:15;26.70;99.90
9383;DHT22;4731;49.708;10.816;2022-09-09T14:43:43;25.30;99.90
9383;DHT22;4731;49.708;10.816;2022-09-09T14:46:13;25.20;99.90
9383;DHT22;4731;49.708;10.816;2022-09-09T14:48:40;24.80;99.90
9383;DHT22;4731;49.708;10.816;2022-09-09T14:51:08;25.50;99.90
9383;DHT22;4731;49.708;10.816;2022-09-09T14:53:35;26.90;99.90
9383;DHT22;4731;49.708;10.816;2022-09-09T14:56:06;24.50;99.90
9383;DHT22;4731;49.708;10.816;2022-09-09T14:58:34;24.10;99.90
9383;DHT22;4731;49.708;10.816;2022-09-09T15:01:04;23.80;99.90
9383;DHT22;4731;49.708;10.816;2022-09-09T15:03:33;23.50;99.90
9383;DHT22;4731;49.708;10.816;2022-09-09T15:06:05;23.10;99.90
9383;DHT22;4731;49.708;10.816;2022-09-09T15:08:34;22.70;99.90
9383;DHT22;4731;49.708;10.816;2022-09-09T15:11:02;22.50;99.90
9383;DHT22;4731;49.708;10.816;2022-09-09T15:13:29;22.10;99.90
9383;DHT22;4731;49.708;10.816;2022-09-09T15:15:56;22.10;99.90
9383;DHT22;4731;49.708;10.816;2022-09-09T15:18:29;22.90;99.90
9383;DHT22;4731;49.708;10.816;2022-09-09T15:20:57;21.90;99.90
9383;DHT22;4731;49.708;10.816;2022-09-09T15:23:25;21.80;99.90
9383;DHT22;4731;49.708;10.816;2022-09-09T15:25:52;21.80;99.90
9383;DHT22;4731;49.708;10.816;2022-09-09T15:28:20;21.80;99.90
9383;DHT22;4731;49.708;10.816;2022-09-09T15:30:48;21.80;99.90
9383;DHT22;4731;49.708;10.816;2022-09-09T15:33:15;23.20;99.90
9383;DHT22;4731;49.708;10.816;2022-09-09T15:35:42;21.90;99.90
9383;DHT22;4731;49.708;10.816;2022-09-09T15:38:10;22.00;99.90
9383;DHT22;4731;49.708;10.816;2022-09-09T15:40:39;21.90;99.90
9383;DHT22;4731;49.708;10.816;2022-09-09T15:43:06;22.00;99.90
9383;DHT22;4731;49.708;10.816;2022-09-09T15:45:35;22.00;99.90
9383;DHT22;4731;49.708;10.816;2022-09-09T15:48:02;22.10;99.90
9383;DHT22;4731;49.708;10.816;2022-09-09T15:50:30;22.10;99.90
9383;DHT22;4731;49.708;10.816;2022-09-09T15:52:57;22.00;99.90
9383;DHT22;4731;49.708;10.816;2022-09-09T15:55:25;26.00;99.90
9383;DHT22;4731;49.708;10.816;2022-09-09T15:57:52;22.10;99.90
9383;DHT22;4731;49.708;10.816;2022-09-09T16:00:19;22.20;99.90
9383;DHT22;4731;49.708;10.816;2022-09-09T16:02:46;22.10;99.90
9383;DHT22;4731;49.708;10.816;2022-09-09T16:05:13;22.10;99.90
9383;DHT22;4731;49.708;10.816;2022-09-09T16:07:40;22.20;99.90
9383;DHT22;4731;49.708;10.816;2022-09-09T16:10:08;22.20;99.90
9383;DHT22;4731;49.708;10.816;2022-09-09T16:12:36;22.00;99.90
9383;DHT22;4731;49.708;10.816;2022-09-09T16:15:05;21.90;99.90
9383;DHT22;4731;49.708;10.816;2022-09-09T16:17:34;21.80;99.90
9383;DHT22;4731;49.708;10.816;2022-09-09T16:20:04;21.60;99.90
9383;DHT22;4731;49.708;10.816;2022-09-09T16:22:34;21.50;99.90
9383;DHT22;4731;49.708;10.816;2022-09-09T16:25:01;22.80;99.90
9383;DHT22;4731;49.708;10.816;2022-09-09T16:27:27;21.50;99.90
9383;DHT22;4731;49.708;10.816;2022-09-09T16:29:55;21.40;99.90
9383;DHT22;4731;49.708;10.816;2022-09-09T16:32:22;21.40;99.90
9383;DHT22;4731;49.708;10.816;2022-09-09T16:34:49;21.30;99.90
9383;DHT22;4731;49.708;10.816;2022-09-09T16:37:15;21.30;99.90
9383;DHT22;4731;49.708;10.816;2022-09-09T16:39:44;22.80;99.90
9383;DHT22;4731;49.708;10.816;2022-09-09T16:42:10;23.00;99.90
9383;DHT22;4731;49.708;10.816;2022-09-09T16:44:37;21.10;99.90
9383;DHT22;4731;49.708;10.816;2022-09-09T16:47:06;22.80;99.90